createdAt,value
2019-05-14T00:01:54.479Z,15.70
2019-05-14T00:04:24.871Z,15.80
2019-05-14T00:06:56.177Z,15.70
2019-05-14T00:09:26.604Z,15.60
2019-05-14T00:11:57.040Z,15.60
2019-05-14T00:14:38.719Z,15.50
2019-05-14T00:17:01.765Z,15.30
2019-05-14T00:19:32.263Z,15.30
2019-05-14T00:22:02.551Z,15.30
2019-05-14T00:24:32.937Z,15.30
2019-05-14T00:27:03.331Z,15.40
2019-05-14T00:29:33.907Z,15.30
2019-05-14T00:32:04.341Z,15.30
2019-05-14T00:34:35.212Z,15.30
2019-05-14T00:37:05.606Z,15.30
2019-05-14T00:39:36.069Z,15.30
2019-05-14T00:42:06.577Z,15.20
2019-05-14T00:44:50.808Z,15.10
2019-05-14T00:47:11.126Z,15.00
2019-05-14T00:49:42.538Z,14.80
2019-05-14T00:52:13.215Z,14.70
2019-05-14T00:54:43.682Z,14.50
2019-05-14T00:57:14.780Z,14.50
2019-05-14T00:59:45.235Z,14.40
2019-05-14T01:02:15.839Z,14.40
2019-05-14T01:04:46.361Z,14.40
2019-05-14T01:07:16.876Z,14.40
2019-05-14T01:09:47.339Z,14.40
2019-05-14T01:12:17.732Z,14.50
2019-05-14T01:14:48.145Z,14.50
2019-05-14T01:17:18.596Z,14.60
2019-05-14T01:19:51.089Z,14.70
2019-05-14T01:22:21.220Z,14.60
2019-05-14T01:24:52.350Z,14.60
2019-05-14T01:27:23.429Z,14.50
2019-05-14T01:29:53.962Z,14.50
2019-05-14T01:32:24.476Z,14.50
2019-05-14T01:34:54.991Z,14.40
2019-05-14T01:37:25.441Z,14.40
2019-05-14T01:39:55.799Z,14.40
2019-05-14T01:42:26.189Z,14.50
2019-05-14T01:44:56.601Z,14.60
2019-05-14T01:47:27.252Z,14.60
2019-05-14T01:49:57.932Z,14.60
2019-05-14T01:52:28.554Z,14.60
2019-05-14T01:55:25.091Z,14.50
2019-05-14T01:57:55.467Z,14.50
2019-05-14T02:00:25.881Z,14.40
2019-05-14T02:02:56.380Z,14.40
2019-05-14T02:05:33.458Z,14.40
2019-05-14T02:08:04.040Z,14.40
2019-05-14T02:10:34.649Z,14.30
2019-05-14T02:13:05.060Z,14.20
2019-05-14T02:15:39.766Z,14.20
2019-05-14T02:18:07.385Z,14.20
2019-05-14T02:20:37.778Z,14.20
2019-05-14T02:23:08.303Z,14.20
2019-05-14T02:25:41.150Z,14.30
2019-05-14T02:28:11.558Z,14.40
2019-05-14T02:30:51.836Z,14.40
2019-05-14T02:33:14.161Z,14.80
2019-05-14T02:35:44.627Z,15.70
2019-05-14T02:38:19.471Z,16.40
2019-05-14T02:40:49.844Z,17.10
2019-05-14T02:43:20.404Z,17.80
2019-05-14T02:46:09.627Z,19.00
2019-05-14T02:48:22.746Z,19.60
2019-05-14T02:50:53.183Z,20.30
2019-05-14T02:53:23.578Z,21.20
2019-05-14T02:55:54.115Z,21.40
2019-05-14T02:58:24.535Z,21.40
2019-05-14T03:00:55.001Z,20.30
2019-05-14T03:03:25.433Z,21.00
2019-05-14T03:05:55.965Z,22.30
2019-05-14T03:08:30.097Z,22.40
2019-05-14T03:11:00.222Z,23.00
2019-05-14T03:13:30.759Z,23.80
2019-05-14T03:16:20.375Z,24.10
2019-05-14T03:18:33.282Z,25.00
2019-05-14T03:21:03.734Z,25.40
2019-05-14T03:23:34.113Z,24.90
2019-05-14T03:26:04.446Z,23.80
2019-05-14T03:28:34.819Z,24.90
2019-05-14T03:31:05.933Z,25.40
2019-05-14T03:33:43.629Z,25.10
2019-05-14T03:36:17.285Z,24.50
2019-05-14T03:38:42.591Z,25.50
2019-05-14T03:41:14.281Z,26.90
2019-05-14T03:43:49.163Z,27.30
2019-05-14T03:46:20.556Z,26.90
2019-05-14T03:48:50.867Z,28.60
2019-05-14T03:51:21.331Z,27.70
2019-05-14T03:54:06.562Z,27.30
2019-05-14T03:56:34.953Z,27.30
2019-05-14T03:59:05.565Z,27.00
2019-05-14T04:01:40.162Z,27.20
2019-05-14T04:04:10.534Z,27.80
2019-05-14T04:06:42.993Z,27.90
2019-05-14T04:09:15.041Z,28.20
2019-05-14T04:11:50.043Z,27.60
2019-05-14T04:14:24.221Z,27.60
2019-05-14T04:17:08.288Z,28.80
2019-05-14T04:25:39.047Z,27.60
2019-05-14T04:28:12.661Z,26.80
2019-05-14T04:30:49.124Z,27.60
2019-05-14T04:33:24.157Z,27.60
2019-05-14T04:35:59.896Z,27.70
2019-05-14T04:38:30.236Z,27.20
2019-05-14T04:41:09.989Z,26.90
2019-05-14T04:43:44.827Z,26.40
2019-05-14T04:49:20.084Z,28.00
2019-05-14T04:51:59.287Z,27.60
2019-05-14T04:54:30.248Z,27.00
2019-05-14T04:57:25.361Z,27.10
2019-05-14T05:00:21.010Z,27.40
2019-05-14T05:03:09.462Z,26.80
2019-05-14T05:08:35.061Z,26.70
2019-05-14T05:11:05.661Z,27.90
2019-05-14T05:13:49.320Z,27.00
2019-05-14T05:16:23.294Z,27.00
2019-05-14T05:19:14.161Z,27.50
2019-05-14T05:21:49.865Z,27.60
2019-05-14T05:24:21.815Z,27.60
2019-05-14T05:26:54.338Z,28.00
2019-05-14T05:29:24.915Z,28.10
2019-05-14T05:31:56.342Z,28.80
2019-05-14T05:34:28.249Z,28.00
2019-05-14T05:36:59.485Z,28.40
2019-05-14T05:39:31.038Z,28.30
2019-05-14T05:42:02.505Z,28.10
2019-05-14T05:44:39.582Z,28.30
2019-05-14T05:47:10.218Z,28.30
2019-05-14T05:49:41.357Z,28.40
2019-05-14T05:52:13.003Z,28.50
2019-05-14T05:54:43.395Z,28.30
2019-05-14T05:57:13.797Z,27.60
2019-05-14T05:59:48.546Z,29.10
2019-05-14T06:02:18.909Z,29.30
2019-05-14T06:04:50.486Z,29.30
2019-05-14T06:07:20.933Z,29.10
2019-05-14T06:09:52.599Z,28.70
2019-05-14T06:12:23.052Z,28.60
2019-05-14T06:14:53.514Z,28.30
2019-05-14T06:17:23.992Z,28.10
2019-05-14T06:20:01.313Z,28.10
2019-05-14T06:22:34.461Z,28.20
2019-05-14T06:25:20.471Z,28.90
2019-05-14T06:27:52.323Z,29.10
2019-05-14T06:30:40.522Z,28.80
2019-05-14T06:36:14.503Z,29.10
2019-05-14T06:38:49.330Z,28.40
2019-05-14T06:41:22.901Z,28.80
2019-05-14T06:43:54.913Z,28.60
2019-05-14T06:46:30.942Z,29.00
2019-05-14T06:49:01.498Z,28.70
2019-05-14T06:51:31.996Z,28.80
2019-05-14T06:54:04.682Z,28.20
2019-05-14T06:56:38.599Z,28.70
2019-05-14T06:59:10.434Z,29.20
2019-05-14T07:01:40.804Z,28.60
2019-05-14T07:04:11.229Z,28.40
2019-05-14T07:06:41.659Z,27.80
2019-05-14T07:09:12.551Z,26.50
2019-05-14T07:11:42.964Z,26.20
2019-05-14T07:14:13.502Z,25.60
2019-05-14T07:16:44.432Z,25.50
2019-05-14T07:19:15.945Z,25.50
2019-05-14T07:21:49.125Z,25.20
2019-05-14T07:24:19.796Z,24.60
2019-05-14T07:26:50.407Z,24.00
2019-05-14T07:29:20.892Z,24.10
2019-05-14T07:32:11.385Z,24.30
2019-05-14T07:34:59.731Z,24.50
2019-05-14T07:37:30.338Z,24.50
2019-05-14T07:40:08.368Z,24.50
2019-05-14T07:42:38.782Z,24.50
2019-05-14T07:45:09.789Z,24.10
2019-05-14T07:47:41.877Z,23.80
2019-05-14T07:50:13.902Z,24.00
2019-05-14T07:52:45.969Z,24.10
2019-05-14T07:55:18.549Z,24.10
2019-05-14T07:57:50.399Z,24.10
2019-05-14T09:13:41.217Z,24.30
2019-05-14T09:16:12.043Z,24.10
2019-05-14T09:18:45.056Z,24.40
2019-05-14T09:21:15.408Z,24.50
2019-05-14T09:23:48.066Z,24.50
2019-05-14T09:26:18.268Z,24.70
2019-05-14T09:28:48.845Z,24.90
2019-05-14T09:31:20.153Z,24.90
2019-05-14T09:33:51.078Z,24.90
2019-05-14T09:36:24.206Z,24.60
2019-05-14T09:38:53.501Z,24.70
2019-05-14T09:41:27.577Z,24.50
2019-05-14T09:43:58.756Z,24.70
2019-05-14T09:46:29.058Z,25.00
2019-05-14T09:48:59.581Z,25.20
2019-05-14T09:51:30.121Z,25.30
2019-05-14T09:54:08.550Z,25.40
2019-05-14T09:56:40.223Z,25.80
2019-05-14T09:59:10.715Z,25.90
2019-05-14T10:01:41.239Z,25.20
2019-05-14T10:04:11.690Z,24.70
2019-05-14T10:06:51.920Z,24.40
2019-05-14T10:09:30.696Z,24.50
2019-05-14T10:12:01.085Z,24.60
2019-05-14T10:14:32.159Z,24.80
2019-05-14T10:17:03.101Z,25.20
2019-05-14T10:19:44.660Z,25.30
2019-05-14T10:22:19.913Z,25.00
2019-05-14T10:24:51.596Z,25.00
2019-05-14T10:27:29.738Z,25.20
2019-05-14T10:30:11.464Z,25.20
2019-05-14T10:32:49.019Z,25.60
2019-05-14T10:35:20.551Z,25.70
2019-05-14T10:37:59.864Z,25.80
2019-05-14T10:40:34.023Z,26.30
2019-05-14T10:43:04.875Z,26.50
2019-05-14T10:45:38.274Z,26.40
2019-05-14T10:48:09.581Z,26.10
2019-05-14T10:50:56.127Z,25.90
2019-05-14T10:53:14.157Z,26.10
2019-05-14T10:55:44.597Z,26.10
2019-05-14T10:58:15.096Z,26.10
2019-05-14T11:00:49.520Z,26.40
2019-05-14T11:03:20.250Z,26.40
2019-05-14T11:05:51.192Z,26.40
2019-05-14T11:08:21.673Z,26.30
2019-05-14T11:10:52.271Z,26.30
2019-05-14T11:13:22.689Z,26.60
2019-05-14T11:15:53.112Z,26.70
2019-05-14T11:18:23.589Z,27.20
2019-05-14T11:21:18.206Z,27.00
2019-05-14T11:23:30.082Z,26.80
2019-05-14T11:26:02.212Z,26.60
2019-05-14T11:28:34.848Z,26.70
2019-05-14T11:31:05.284Z,26.90
2019-05-14T11:33:38.915Z,26.60
2019-05-14T11:36:10.141Z,26.90
2019-05-14T11:38:40.745Z,27.00
2019-05-14T11:41:11.914Z,27.20
2019-05-14T11:43:42.285Z,27.00
2019-05-14T11:46:14.327Z,26.80
2019-05-14T11:48:44.723Z,27.10
2019-05-14T11:51:16.157Z,27.20
2019-05-14T11:53:49.228Z,27.10
2019-05-14T11:56:21.660Z,27.00
2019-05-14T12:05:09.012Z,26.90
2019-05-14T12:07:39.578Z,26.40
2019-05-14T12:10:10.156Z,26.20
2019-05-14T12:12:43.596Z,26.20
2019-05-14T12:15:15.511Z,26.10
2019-05-14T12:17:46.066Z,25.80
2019-05-14T12:20:18.742Z,25.70
2019-05-14T12:22:49.396Z,25.50
2019-05-14T12:25:20.331Z,25.60
2019-05-14T12:27:50.859Z,25.80
2019-05-14T12:30:21.399Z,25.80
2019-05-14T12:32:53.059Z,25.80
2019-05-14T12:35:24.112Z,25.70
2019-05-14T12:37:54.668Z,25.70
2019-05-14T12:40:25.140Z,25.90
2019-05-14T12:42:55.574Z,26.00
2019-05-14T12:45:30.950Z,26.00
2019-05-14T12:51:09.613Z,26.10
2019-05-14T12:53:44.506Z,25.70
2019-05-14T12:56:18.556Z,25.70
2019-05-14T12:58:50.041Z,25.70
2019-05-14T13:01:21.098Z,25.80
2019-05-14T13:03:51.610Z,25.80
2019-05-14T13:06:24.283Z,25.70
2019-05-14T13:08:54.765Z,25.80
2019-05-14T13:11:25.301Z,25.90
2019-05-14T13:13:58.343Z,26.00
2019-05-14T13:16:30.792Z,26.10
2019-05-14T13:19:01.286Z,26.10
2019-05-14T13:21:31.776Z,26.10
2019-05-14T13:24:03.325Z,26.00
2019-05-14T13:26:33.788Z,25.90
2019-05-14T13:29:07.373Z,25.80
2019-05-14T13:31:36.320Z,25.70
2019-05-14T13:34:08.927Z,25.60
2019-05-14T13:36:40.016Z,25.60
2019-05-14T13:39:10.914Z,25.70
2019-05-14T13:41:42.052Z,25.70
2019-05-14T13:44:21.181Z,25.80
2019-05-14T13:46:54.988Z,25.80
2019-05-14T13:49:25.490Z,25.90
2019-05-14T13:51:56.020Z,25.90
2019-05-14T13:54:31.184Z,25.90
2019-05-14T13:56:58.731Z,25.90
2019-05-14T13:59:30.923Z,25.90
2019-05-14T14:02:01.428Z,25.90
2019-05-14T14:04:32.955Z,26.00
2019-05-14T14:07:03.500Z,26.00
2019-05-14T14:09:59.151Z,25.90
2019-05-14T14:12:32.390Z,25.80
2019-05-14T14:15:09.922Z,25.80
2019-05-14T14:17:40.451Z,25.80
2019-05-14T14:20:13.616Z,25.70
2019-05-14T14:22:49.054Z,25.70
2019-05-14T14:25:41.574Z,25.60
2019-05-14T14:28:09.914Z,25.50
2019-05-14T14:31:10.780Z,25.40
2019-05-14T14:33:39.787Z,25.50
2019-05-14T14:36:10.267Z,25.50
2019-05-14T14:38:41.268Z,25.60
2019-05-14T14:41:11.937Z,25.70
2019-05-14T14:43:44.376Z,25.90
2019-05-14T14:46:15.710Z,25.90
2019-05-14T14:48:48.986Z,25.90
2019-05-14T14:51:28.415Z,25.90
2019-05-14T14:54:02.710Z,25.90
2019-05-14T14:56:32.042Z,25.70
2019-05-14T14:59:02.612Z,25.60
2019-05-14T15:01:33.218Z,25.60
2019-05-14T15:04:05.690Z,25.50
2019-05-14T15:06:39.421Z,25.40
2019-05-14T15:09:09.661Z,25.40
2019-05-14T15:11:40.580Z,25.30
2019-05-14T15:14:11.158Z,25.30
2019-05-14T15:16:42.957Z,25.20
2019-05-14T15:19:19.314Z,25.10
2019-05-14T15:21:54.946Z,25.10
2019-05-14T15:24:25.578Z,25.00
2019-05-14T15:27:06.476Z,25.00
2019-05-14T15:29:31.801Z,25.00
2019-05-14T15:32:02.753Z,24.90
2019-05-14T15:34:34.742Z,24.90
2019-05-14T15:37:08.875Z,24.80
2019-05-14T15:39:48.923Z,24.80
2019-05-14T15:45:37.856Z,24.60
2019-05-14T15:51:23.535Z,24.50
2019-05-14T15:54:11.221Z,24.40
2019-05-14T15:56:31.399Z,24.30
2019-05-14T15:59:01.979Z,24.20
2019-05-14T16:01:32.563Z,24.10
2019-05-14T16:04:04.370Z,24.10
2019-05-14T16:06:34.975Z,24.00
2019-05-14T16:09:07.232Z,23.90
2019-05-14T16:11:39.342Z,23.80
2019-05-14T16:14:10.417Z,23.70
2019-05-14T16:16:48.686Z,23.60
2019-05-14T16:19:25.142Z,23.50
2019-05-14T16:21:58.633Z,23.30
2019-05-14T16:24:30.424Z,23.30
2019-05-14T16:27:03.317Z,23.20
2019-05-14T16:29:44.249Z,23.10
2019-05-14T16:32:08.515Z,23.10
2019-05-14T16:34:41.325Z,23.00
2019-05-14T16:37:12.060Z,22.90
2019-05-14T16:39:48.867Z,22.80
2019-05-14T16:42:21.373Z,22.70
2019-05-14T16:44:55.909Z,22.60
2019-05-14T16:47:32.546Z,22.50
2019-05-14T16:50:11.240Z,22.50
2019-05-14T16:52:42.664Z,22.40
2019-05-14T16:55:23.374Z,22.20
2019-05-14T16:57:49.995Z,22.10
2019-05-14T17:00:21.020Z,22.00
2019-05-14T17:02:54.613Z,21.90
2019-05-14T17:33:50.499Z,21.20
2019-05-14T17:36:38.955Z,21.10
2019-05-14T17:38:59.032Z,21.10
2019-05-14T21:36:24.498Z,17.80
2019-05-14T21:38:55.384Z,17.70
2019-05-14T21:41:25.900Z,17.70
2019-05-14T21:43:58.460Z,17.80
2019-05-14T21:46:31.483Z,17.80
2019-05-14T21:49:03.803Z,17.90
2019-05-14T21:51:34.401Z,17.90
2019-05-14T21:54:04.785Z,17.90
2019-05-14T21:56:35.295Z,17.80
2019-05-14T21:59:05.755Z,17.90
2019-05-14T22:01:38.731Z,17.80
2019-05-14T22:04:11.464Z,17.80
2019-05-14T22:06:41.326Z,17.80
2019-05-14T22:09:11.953Z,17.80
2019-05-14T22:11:43.145Z,17.80
2019-05-14T22:14:13.591Z,17.80
2019-05-14T22:16:44.196Z,17.70
2019-05-14T22:19:14.639Z,17.70
2019-05-14T22:21:45.092Z,17.60
2019-05-14T22:24:15.809Z,17.50
2019-05-14T22:26:47.933Z,17.50
2019-05-14T22:29:21.712Z,17.40
2019-05-14T22:31:54.976Z,17.40
2019-05-14T22:34:25.339Z,17.50
2019-05-14T22:36:57.932Z,17.40
2019-05-14T22:39:29.125Z,17.30
2019-05-14T22:42:00.216Z,17.30
2019-05-14T22:44:31.156Z,17.30
2019-05-14T22:47:01.570Z,17.40
2019-05-14T22:49:31.969Z,17.30
2019-05-14T22:52:02.808Z,17.30
2019-05-14T22:54:33.222Z,17.30
2019-05-14T22:57:03.748Z,17.20
2019-05-14T22:59:34.526Z,17.20
2019-05-14T23:02:04.964Z,17.20
2019-05-14T23:04:35.311Z,17.20
2019-05-14T23:07:08.081Z,17.10
2019-05-14T23:09:38.800Z,17.20
2019-05-14T23:12:11.977Z,17.10
2019-05-14T23:14:41.436Z,17.10
2019-05-14T23:17:11.972Z,17.10
2019-05-14T23:19:42.328Z,17.20
2019-05-14T23:22:12.754Z,17.20
2019-05-14T23:24:43.177Z,17.20
2019-05-14T23:27:13.661Z,17.10
2019-05-14T23:29:44.045Z,17.10
2019-05-14T23:32:14.473Z,17.20
2019-05-14T23:34:44.887Z,17.20
2019-05-14T23:37:15.275Z,17.30
2019-05-14T23:39:45.687Z,17.20
2019-05-14T23:42:18.516Z,17.10
2019-05-14T23:44:49.176Z,17.10
2019-05-14T23:47:19.750Z,17.00
2019-05-14T23:49:50.124Z,16.90
2019-05-14T23:52:20.584Z,16.80
2019-05-14T23:54:50.920Z,16.70
2019-05-14T23:57:21.388Z,16.70
2019-05-14T23:59:51.653Z,16.70
